createdAt,value
2022-12-05T00:01:29.075Z,3.50
2022-12-05T00:04:02.326Z,3.50
2022-12-05T00:06:30.192Z,3.50
2022-12-05T00:08:57.881Z,3.60
2022-12-05T00:11:27.493Z,3.60
2022-12-05T00:13:56.839Z,3.60
2022-12-05T00:16:25.880Z,3.50
2022-12-05T00:18:53.431Z,3.70
2022-12-05T00:21:23.210Z,3.70
2022-12-05T00:23:50.971Z,3.80
2022-12-05T00:26:18.389Z,3.80
2022-12-05T00:28:45.295Z,3.80
2022-12-05T00:31:16.333Z,3.80
2022-12-05T00:33:44.051Z,3.80
2022-12-05T00:36:13.450Z,3.90
2022-12-05T00:38:41.546Z,3.80
2022-12-05T00:41:10.838Z,3.70
2022-12-05T00:43:38.552Z,3.80
2022-12-05T00:46:11.438Z,3.80
2022-12-05T00:48:38.392Z,3.80
2022-12-05T00:51:15.085Z,3.80
2022-12-05T00:53:42.691Z,3.70
2022-12-05T00:56:15.485Z,3.80
2022-12-05T00:58:42.898Z,3.80
2022-12-05T01:01:19.403Z,3.80
2022-12-05T01:03:47.218Z,3.70
2022-12-05T01:06:15.774Z,3.80
2022-12-05T01:08:43.069Z,3.90
2022-12-05T01:11:16.222Z,4.00
2022-12-05T01:13:43.387Z,4.10
2022-12-05T01:16:19.074Z,3.90
2022-12-05T01:18:46.626Z,3.80
2022-12-05T01:21:13.609Z,3.90
2022-12-05T01:23:41.016Z,3.90
2022-12-05T01:26:10.505Z,3.80
2022-12-05T01:28:37.479Z,3.80
2022-12-05T01:31:07.269Z,3.90
2022-12-05T01:33:35.259Z,4.00
2022-12-05T01:36:03.629Z,4.00
2022-12-05T01:38:30.479Z,4.00
2022-12-05T01:41:02.054Z,3.90
2022-12-05T01:43:29.000Z,4.10
2022-12-05T01:45:56.519Z,4.10
2022-12-05T01:48:28.010Z,4.00
2022-12-05T01:50:55.400Z,4.10
2022-12-05T01:53:22.520Z,4.10
2022-12-05T01:55:50.964Z,4.10
2022-12-05T01:58:18.905Z,4.10
2022-12-05T02:00:46.126Z,4.10
2022-12-05T02:03:21.126Z,4.00
2022-12-05T02:05:51.263Z,4.00
2022-12-05T02:08:18.700Z,4.00
2022-12-05T02:10:54.443Z,4.00
2022-12-05T02:13:45.794Z,4.10
2022-12-05T02:16:26.021Z,4.10
2022-12-05T02:19:11.669Z,4.00
2022-12-05T02:21:57.175Z,4.00
2022-12-05T02:24:39.018Z,4.00
2022-12-05T02:27:30.654Z,4.10
2022-12-05T02:30:13.598Z,4.10
2022-12-05T02:33:04.856Z,4.10
2022-12-05T02:35:55.866Z,4.20
2022-12-05T02:38:36.583Z,4.10
2022-12-05T02:41:37.650Z,4.20
2022-12-05T02:44:15.955Z,4.20
2022-12-05T02:46:44.745Z,4.10
2022-12-05T02:49:16.355Z,4.20
2022-12-05T02:51:46.940Z,4.20
2022-12-05T02:54:20.867Z,4.20
2022-12-05T02:56:49.163Z,4.20
2022-12-05T02:59:21.437Z,4.20
2022-12-05T03:01:50.251Z,4.20
2022-12-05T03:04:20.176Z,4.20
2022-12-05T03:06:58.583Z,4.10
2022-12-05T03:09:36.524Z,4.10
2022-12-05T03:12:18.552Z,4.20
2022-12-05T03:14:49.888Z,4.20
2022-12-05T03:17:23.437Z,4.10
2022-12-05T03:20:04.943Z,4.10
2022-12-05T03:23:09.757Z,4.10
2022-12-05T03:25:45.585Z,4.20
2022-12-05T03:28:29.838Z,4.10
2022-12-05T03:31:02.768Z,4.10
2022-12-05T03:33:37.294Z,4.10
2022-12-05T03:36:15.969Z,4.20
2022-12-05T03:39:02.835Z,4.20
2022-12-05T03:41:41.607Z,4.20
2022-12-05T03:44:27.085Z,4.20
2022-12-05T03:47:10.690Z,4.20
2022-12-05T03:49:43.701Z,4.20
2022-12-05T03:52:24.397Z,4.20
2022-12-05T03:54:59.771Z,4.20
2022-12-05T03:57:31.191Z,4.20
2022-12-05T04:00:05.579Z,4.30
2022-12-05T04:02:56.147Z,4.30
2022-12-05T04:05:32.995Z,4.30
2022-12-05T04:08:11.294Z,4.30
2022-12-05T04:10:50.332Z,4.20
2022-12-05T04:13:41.678Z,4.20
2022-12-05T04:16:31.675Z,4.30
2022-12-05T04:19:09.074Z,4.30
2022-12-05T04:21:44.788Z,4.30
2022-12-05T04:24:36.566Z,4.20
2022-12-05T04:27:12.373Z,4.20
2022-12-05T04:30:05.959Z,4.30
2022-12-05T04:33:05.683Z,4.30
2022-12-05T04:35:37.138Z,4.20
2022-12-05T04:38:27.841Z,4.20
2022-12-05T04:40:59.174Z,4.30
2022-12-05T04:43:28.199Z,4.20
2022-12-05T04:45:58.352Z,4.30
2022-12-05T04:48:27.570Z,4.30
2022-12-05T04:50:56.111Z,4.20
2022-12-05T04:53:27.194Z,4.30
2022-12-05T04:55:57.253Z,4.30
2022-12-05T04:58:26.412Z,4.20
2022-12-05T05:01:04.524Z,4.20
2022-12-05T05:03:37.096Z,4.30
2022-12-05T05:06:04.476Z,4.40
2022-12-05T05:08:31.307Z,4.30
2022-12-05T05:11:14.416Z,4.30
2022-12-05T05:13:41.165Z,4.40
2022-12-05T05:16:08.353Z,4.40
2022-12-05T05:18:35.136Z,4.30
2022-12-05T05:21:01.875Z,4.30
2022-12-05T05:23:28.668Z,4.30
2022-12-05T05:25:56.770Z,4.30
2022-12-05T05:28:23.538Z,4.30
2022-12-05T05:30:50.383Z,4.30
2022-12-05T05:33:17.180Z,4.40
2022-12-05T05:35:43.930Z,4.30
2022-12-05T05:38:10.691Z,4.30
2022-12-05T05:40:37.663Z,4.40
2022-12-05T05:43:04.653Z,4.40
2022-12-05T05:45:31.501Z,4.30
2022-12-05T05:47:58.173Z,4.40
2022-12-05T05:50:24.954Z,4.40
2022-12-05T05:52:51.669Z,4.40
2022-12-05T05:55:18.908Z,4.40
2022-12-05T05:57:46.034Z,4.50
2022-12-05T06:00:13.465Z,4.40
2022-12-05T06:02:40.342Z,4.30
2022-12-05T06:05:07.672Z,4.40
2022-12-05T06:07:34.533Z,4.40
2022-12-05T06:10:01.609Z,4.50
2022-12-05T06:12:28.713Z,4.50
2022-12-05T06:14:55.554Z,4.50
2022-12-05T06:17:22.410Z,4.50
2022-12-05T06:19:49.262Z,4.60
2022-12-05T06:22:16.057Z,4.60
2022-12-05T06:24:42.814Z,4.60
2022-12-05T06:27:09.722Z,4.70
2022-12-05T06:29:36.610Z,4.60
2022-12-05T06:32:03.674Z,4.70
2022-12-05T06:34:32.502Z,4.70
2022-12-05T06:36:59.926Z,4.60
2022-12-05T06:39:27.010Z,4.70
2022-12-05T06:41:53.707Z,4.70
2022-12-05T06:44:21.948Z,4.60
2022-12-05T06:46:49.232Z,4.50
2022-12-05T06:49:15.946Z,4.60
2022-12-05T06:51:42.683Z,4.60
2022-12-05T06:54:11.250Z,4.70
2022-12-05T06:56:40.978Z,4.70
2022-12-05T06:59:07.852Z,4.60
2022-12-05T07:01:44.025Z,4.60
2022-12-05T07:04:20.250Z,4.60
2022-12-05T07:06:51.110Z,4.70
2022-12-05T07:09:44.551Z,4.70
2022-12-05T07:12:16.416Z,4.70
2022-12-05T07:14:49.038Z,4.70
2022-12-05T07:17:18.091Z,4.70
2022-12-05T07:19:46.687Z,4.70
2022-12-05T07:22:15.879Z,4.70
2022-12-05T07:24:43.788Z,4.70
2022-12-05T07:27:10.618Z,4.70
2022-12-05T07:29:37.445Z,4.70
2022-12-05T07:32:04.667Z,4.80
2022-12-05T07:34:31.476Z,4.70
2022-12-05T07:36:58.214Z,4.80
2022-12-05T07:39:24.995Z,4.80
2022-12-05T07:41:51.763Z,4.80
2022-12-05T07:44:18.578Z,4.80
2022-12-05T07:46:45.414Z,4.70
2022-12-05T07:49:12.293Z,4.70
2022-12-05T07:51:39.102Z,4.80
2022-12-05T07:54:06.873Z,4.90
2022-12-05T07:56:34.049Z,4.90
2022-12-05T07:59:00.947Z,4.90
2022-12-05T08:01:29.475Z,4.80
2022-12-05T08:03:59.402Z,4.80
2022-12-05T08:06:30.426Z,4.90
2022-12-05T08:08:58.241Z,4.90
2022-12-05T08:11:31.028Z,5.00
2022-12-05T08:13:58.545Z,5.00
2022-12-05T08:16:28.653Z,4.90
2022-12-05T08:19:07.734Z,5.00
2022-12-05T08:21:35.011Z,5.00
2022-12-05T08:24:04.277Z,5.00
2022-12-05T08:26:32.766Z,4.90
2022-12-05T08:29:01.059Z,5.00
2022-12-05T08:31:30.737Z,5.00
2022-12-05T08:33:59.600Z,5.10
2022-12-05T08:36:28.523Z,5.10
2022-12-05T08:39:00.446Z,5.20
2022-12-05T08:41:30.054Z,5.10
2022-12-05T08:43:58.959Z,5.20
2022-12-05T08:46:26.077Z,5.20
2022-12-05T08:48:53.069Z,5.20
2022-12-05T08:51:19.835Z,5.20
2022-12-05T08:53:46.910Z,5.10
2022-12-05T08:56:13.700Z,5.20
2022-12-05T08:58:41.253Z,5.10
2022-12-05T09:01:13.789Z,5.10
2022-12-05T09:03:47.357Z,5.10
2022-12-05T09:06:20.951Z,5.00
2022-12-05T09:08:48.570Z,5.00
2022-12-05T09:11:18.477Z,5.10
2022-12-05T09:13:46.485Z,5.10
2022-12-05T09:16:22.472Z,5.20
2022-12-05T09:18:50.611Z,5.20
2022-12-05T09:21:19.834Z,5.10
2022-12-05T09:23:47.522Z,5.10
2022-12-05T09:26:16.890Z,5.10
2022-12-05T09:28:44.259Z,5.20
2022-12-05T09:31:15.211Z,5.10
2022-12-05T09:33:42.669Z,5.20
2022-12-05T09:36:18.991Z,5.20
2022-12-05T09:38:46.704Z,5.20
2022-12-05T09:41:56.755Z,5.20
2022-12-05T09:44:45.940Z,5.30
2022-12-05T09:47:36.432Z,5.10
2022-12-05T09:50:23.690Z,5.20
2022-12-05T09:53:25.569Z,5.20
2022-12-05T09:55:57.830Z,5.20
2022-12-05T09:58:45.829Z,5.30
2022-12-05T10:01:41.648Z,5.30
2022-12-05T10:04:27.419Z,5.30
2022-12-05T10:07:00.017Z,5.30
2022-12-05T10:09:39.883Z,5.30
2022-12-05T10:12:54.781Z,5.30
2022-12-05T10:15:32.732Z,5.20
2022-12-05T10:18:10.671Z,5.40
2022-12-05T10:20:57.067Z,5.40
2022-12-05T10:23:56.023Z,5.50
2022-12-05T10:26:17.738Z,5.50
2022-12-05T10:29:00.947Z,5.50
2022-12-05T10:31:33.920Z,5.50
2022-12-05T10:34:12.228Z,5.40
2022-12-05T10:36:38.990Z,5.40
2022-12-05T10:39:11.229Z,5.40
2022-12-05T10:41:38.889Z,5.40
2022-12-05T10:44:05.878Z,5.40
2022-12-05T10:46:32.664Z,5.40
2022-12-05T10:49:02.811Z,5.40
2022-12-05T10:51:34.208Z,5.40
2022-12-05T10:54:13.526Z,5.50
2022-12-05T10:56:48.989Z,5.50
2022-12-05T10:59:24.445Z,5.50
2022-12-05T11:01:59.188Z,5.50
2022-12-05T11:04:30.922Z,5.60
2022-12-05T11:07:01.665Z,5.60
2022-12-05T11:09:33.978Z,5.60
2022-12-05T11:12:23.049Z,5.70
2022-12-05T11:15:02.140Z,5.60
2022-12-05T11:17:37.755Z,5.60
2022-12-05T11:20:24.942Z,5.60
2022-12-05T11:22:53.715Z,5.50
2022-12-05T11:25:31.610Z,5.50
2022-12-05T11:28:18.251Z,5.60
2022-12-05T11:31:21.192Z,5.60
2022-12-05T11:34:10.198Z,5.60
2022-12-05T11:36:45.612Z,5.60
2022-12-05T11:39:14.194Z,5.60
2022-12-05T11:42:04.070Z,5.60
2022-12-05T11:44:48.926Z,5.50
2022-12-05T11:47:42.260Z,5.50
2022-12-05T11:50:42.897Z,5.60
2022-12-05T11:53:47.984Z,5.70
2022-12-05T11:56:29.255Z,5.60
2022-12-05T11:59:19.461Z,5.50
2022-12-05T12:02:02.437Z,5.60
2022-12-05T12:04:56.950Z,5.70
2022-12-05T12:07:49.495Z,5.70
2022-12-05T12:10:44.396Z,5.70
2022-12-05T12:13:40.192Z,5.70
2022-12-05T12:16:17.799Z,5.70
2022-12-05T12:18:58.157Z,5.70
2022-12-05T12:21:51.687Z,5.70
2022-12-05T12:25:02.342Z,5.70
2022-12-05T12:28:05.245Z,5.70
2022-12-05T12:30:59.982Z,5.80
2022-12-05T12:33:41.337Z,5.70
2022-12-05T12:36:28.004Z,5.80
2022-12-05T12:39:26.370Z,5.80
2022-12-05T12:41:58.287Z,5.80
2022-12-05T12:44:43.250Z,5.70
2022-12-05T12:47:37.650Z,5.80
2022-12-05T12:50:26.774Z,5.80
2022-12-05T12:53:28.786Z,5.70
2022-12-05T12:56:21.333Z,5.70
2022-12-05T12:59:14.118Z,5.80
2022-12-05T13:01:53.485Z,5.80
2022-12-05T13:04:59.037Z,5.80
2022-12-05T13:07:47.755Z,5.80
2022-12-05T13:10:25.339Z,5.80
2022-12-05T13:12:53.415Z,5.70
2022-12-05T13:15:30.017Z,5.90
2022-12-05T13:17:57.232Z,5.90
2022-12-05T13:20:27.937Z,6.00
2022-12-05T13:22:55.409Z,6.00
2022-12-05T13:25:27.165Z,6.00
2022-12-05T13:27:58.172Z,6.10
2022-12-05T13:30:28.478Z,6.10
2022-12-05T13:32:58.307Z,6.10
2022-12-05T13:35:52.904Z,6.20
2022-12-05T13:38:46.635Z,5.90
2022-12-05T13:41:32.987Z,5.80
2022-12-05T13:44:06.829Z,6.00
2022-12-05T13:46:36.411Z,5.90
2022-12-05T13:49:11.630Z,6.00
2022-12-05T13:51:44.072Z,6.10
2022-12-05T13:54:13.309Z,6.00
2022-12-05T13:56:54.819Z,6.10
2022-12-05T14:00:00.051Z,6.10
2022-12-05T14:02:42.472Z,6.10
2022-12-05T14:05:21.519Z,6.00
2022-12-05T14:07:53.699Z,6.20
2022-12-05T14:10:43.595Z,6.10
2022-12-05T14:13:16.552Z,6.20
2022-12-05T14:15:45.900Z,6.20
2022-12-05T14:18:22.849Z,6.30
2022-12-05T14:21:34.376Z,6.30
2022-12-05T14:24:24.440Z,6.20
2022-12-05T14:27:18.864Z,6.30
2022-12-05T14:30:03.503Z,6.30
2022-12-05T14:32:34.219Z,6.30
2022-12-05T14:35:01.007Z,6.30
2022-12-05T14:37:37.410Z,6.30
2022-12-05T14:40:30.372Z,6.30
2022-12-05T14:43:20.242Z,6.40
2022-12-05T14:45:52.809Z,6.40
2022-12-05T14:48:48.338Z,6.40
2022-12-05T14:51:30.317Z,6.30
2022-12-05T14:54:17.119Z,6.40
2022-12-05T14:56:54.512Z,6.40
2022-12-05T14:59:27.284Z,6.40
2022-12-05T15:02:00.981Z,6.30
2022-12-05T15:04:56.837Z,6.40
2022-12-05T15:07:38.608Z,6.50
2022-12-05T15:10:20.756Z,6.40
2022-12-05T15:12:57.442Z,6.50
2022-12-05T15:15:39.971Z,6.40
2022-12-05T15:18:30.367Z,6.40
2022-12-05T15:21:34.309Z,6.40
2022-12-05T15:24:13.394Z,6.40
2022-12-05T15:26:48.547Z,6.30
2022-12-05T15:29:17.619Z,6.40
2022-12-05T15:31:51.555Z,6.50
2022-12-05T15:34:32.220Z,6.30
2022-12-05T15:37:22.101Z,6.40
2022-12-05T15:40:01.803Z,6.40
2022-12-05T15:42:36.553Z,6.30
2022-12-05T15:45:15.296Z,6.40
2022-12-05T15:47:47.083Z,6.40
2022-12-05T15:50:39.649Z,6.30
2022-12-05T15:53:06.297Z,6.30
2022-12-05T15:55:48.301Z,6.20
2022-12-05T15:58:27.052Z,6.20
2022-12-05T16:01:01.816Z,6.10
2022-12-05T16:03:49.700Z,6.30
2022-12-05T16:06:24.332Z,6.20
2022-12-05T16:08:51.688Z,6.10
2022-12-05T16:11:19.203Z,6.10
2022-12-05T16:13:50.120Z,6.10
2022-12-05T16:16:29.712Z,6.20
2022-12-05T16:18:59.325Z,6.20
2022-12-05T16:21:39.149Z,6.20
2022-12-05T16:24:08.068Z,6.20
2022-12-05T16:26:39.769Z,6.20
2022-12-05T16:29:06.978Z,6.30
2022-12-05T16:31:34.193Z,6.20
2022-12-05T16:34:06.874Z,6.20
2022-12-05T16:36:34.662Z,6.30
2022-12-05T16:39:06.878Z,6.30
2022-12-05T16:41:39.009Z,6.30
2022-12-05T16:44:26.391Z,6.30
2022-12-05T16:46:54.962Z,6.20
2022-12-05T16:49:37.028Z,6.20
2022-12-05T16:52:14.463Z,6.20
2022-12-05T16:54:42.850Z,6.30
2022-12-05T16:57:13.066Z,6.30
2022-12-05T16:59:42.217Z,6.20
2022-12-05T17:02:14.652Z,6.10
2022-12-05T17:04:42.296Z,6.30
2022-12-05T17:07:09.540Z,6.20
2022-12-05T17:09:36.348Z,6.30
2022-12-05T17:12:10.112Z,6.20
2022-12-05T17:14:36.967Z,6.30
2022-12-05T17:17:05.886Z,6.30
2022-12-05T17:19:33.240Z,6.30
2022-12-05T17:22:00.261Z,6.30
2022-12-05T17:24:28.544Z,6.30
2022-12-05T17:26:55.340Z,6.40
2022-12-05T17:29:22.143Z,6.40
2022-12-05T17:31:49.437Z,6.40
2022-12-05T17:34:17.744Z,6.40
2022-12-05T17:36:45.244Z,6.30
2022-12-05T17:39:12.709Z,6.30
2022-12-05T17:41:39.464Z,6.30
2022-12-05T17:44:07.007Z,6.30
2022-12-05T17:46:33.834Z,6.30
2022-12-05T17:49:00.722Z,6.40
2022-12-05T17:51:27.693Z,6.40
2022-12-05T17:53:54.594Z,6.40
2022-12-05T17:56:21.832Z,6.30
2022-12-05T17:58:49.601Z,6.30
2022-12-05T18:01:19.535Z,6.40
2022-12-05T18:03:47.075Z,6.40
2022-12-05T18:06:14.090Z,6.40
2022-12-05T18:08:43.837Z,6.40
2022-12-05T18:11:11.988Z,6.30
2022-12-05T18:13:39.105Z,6.40
2022-12-05T18:16:06.230Z,6.30
2022-12-05T18:18:33.229Z,6.30
2022-12-05T18:21:05.177Z,6.30
2022-12-05T18:23:31.922Z,6.30
2022-12-05T18:26:00.091Z,6.40
2022-12-05T18:28:27.435Z,6.30
2022-12-05T18:31:23.391Z,6.30
2022-12-05T18:33:50.185Z,6.50
2022-12-05T18:36:31.686Z,6.40
2022-12-05T18:38:58.407Z,6.30
2022-12-05T18:41:26.684Z,6.40
2022-12-05T18:43:54.079Z,6.40
2022-12-05T18:46:20.858Z,6.40
2022-12-05T18:48:48.825Z,6.40
2022-12-05T18:51:21.243Z,6.40
2022-12-05T18:53:53.205Z,6.40
2022-12-05T18:56:30.192Z,6.40
2022-12-05T18:59:03.121Z,6.30
2022-12-05T19:01:31.947Z,6.30
2022-12-05T19:04:00.638Z,6.30
2022-12-05T19:06:32.883Z,6.30
2022-12-05T19:09:02.374Z,6.30
2022-12-05T19:11:29.590Z,6.30
2022-12-05T19:14:01.847Z,6.40
2022-12-05T19:16:30.357Z,6.40
2022-12-05T19:19:00.045Z,6.20
2022-12-05T19:21:30.153Z,6.20
2022-12-05T19:23:57.492Z,6.20
2022-12-05T19:26:24.496Z,6.30
2022-12-05T19:28:51.716Z,6.30
2022-12-05T19:31:21.496Z,6.30
2022-12-05T19:33:50.288Z,6.20
2022-12-05T19:36:22.715Z,6.20
2022-12-05T19:38:52.037Z,6.20
2022-12-05T19:41:23.870Z,6.30
2022-12-05T19:43:51.294Z,6.30
2022-12-05T19:46:24.907Z,6.40
2022-12-05T19:48:53.401Z,6.30
2022-12-05T19:51:20.966Z,6.40
2022-12-05T19:53:48.599Z,6.30
2022-12-05T19:56:21.302Z,6.30
2022-12-05T19:58:48.971Z,6.30
2022-12-05T20:01:18.630Z,6.30
2022-12-05T20:04:00.185Z,6.40
2022-12-05T20:06:32.135Z,6.30
2022-12-05T20:09:00.114Z,6.30
2022-12-05T20:11:29.208Z,6.40
2022-12-05T20:13:58.341Z,6.50
2022-12-05T20:16:27.124Z,6.50
2022-12-05T20:18:59.052Z,6.50
2022-12-05T20:21:27.922Z,6.50
2022-12-05T20:23:54.978Z,6.40
2022-12-05T20:26:27.357Z,6.40
2022-12-05T20:28:56.489Z,6.40
2022-12-05T20:31:25.397Z,6.40
2022-12-05T20:33:53.882Z,6.40
2022-12-05T20:36:23.391Z,6.50
2022-12-05T20:39:03.461Z,6.50
2022-12-05T20:41:30.502Z,6.60
2022-12-05T20:44:00.196Z,6.60
2022-12-05T20:46:28.433Z,6.50
2022-12-05T20:48:56.436Z,6.50
2022-12-05T20:51:34.228Z,6.50
2022-12-05T20:54:03.125Z,6.50
2022-12-05T20:56:32.229Z,6.60
2022-12-05T20:59:01.227Z,6.50
2022-12-05T21:01:29.749Z,6.50
2022-12-05T21:03:57.056Z,6.50
2022-12-05T21:06:31.005Z,6.60
2022-12-05T21:08:58.678Z,6.50
2022-12-05T21:11:27.084Z,6.60
2022-12-05T21:13:58.273Z,6.50
2022-12-05T21:16:25.217Z,6.50
2022-12-05T21:18:52.937Z,6.50
2022-12-05T21:21:22.338Z,6.40
2022-12-05T21:23:53.861Z,6.50
2022-12-05T21:26:23.027Z,6.40
2022-12-05T21:28:50.109Z,6.50
2022-12-05T21:31:20.963Z,6.60
2022-12-05T21:33:53.281Z,6.50
2022-12-05T21:36:20.955Z,6.40
2022-12-05T21:38:52.404Z,6.40
2022-12-05T21:41:22.795Z,6.40
2022-12-05T21:43:54.003Z,6.50
2022-12-05T21:46:22.438Z,6.50
2022-12-05T21:48:49.278Z,6.60
2022-12-05T21:51:16.217Z,6.50
2022-12-05T21:53:42.990Z,6.50
2022-12-05T21:56:11.922Z,6.40
2022-12-05T21:58:42.258Z,6.40
2022-12-05T22:01:10.935Z,6.40
2022-12-05T22:03:38.469Z,6.30
2022-12-05T22:06:07.629Z,6.40
2022-12-05T22:08:35.204Z,6.40
2022-12-05T22:11:11.051Z,6.30
2022-12-05T22:13:38.253Z,6.40
2022-12-05T22:16:05.969Z,6.40
2022-12-05T22:18:33.186Z,6.40
2022-12-05T22:21:12.876Z,6.30
2022-12-05T22:23:39.928Z,6.40
2022-12-05T22:26:09.742Z,6.40
2022-12-05T22:28:36.975Z,6.50
2022-12-05T22:31:07.335Z,6.60
2022-12-05T22:33:37.912Z,6.50
2022-12-05T22:36:07.536Z,6.30
2022-12-05T22:38:37.078Z,6.40
2022-12-05T22:41:09.418Z,6.40
2022-12-05T22:43:37.751Z,6.40
2022-12-05T22:46:11.528Z,6.40
2022-12-05T22:48:38.553Z,6.40
2022-12-05T22:51:07.024Z,6.50
2022-12-05T22:53:34.765Z,6.40
2022-12-05T22:56:10.168Z,6.40
2022-12-05T22:58:38.208Z,6.40
2022-12-05T23:01:18.674Z,6.40
2022-12-05T23:03:47.645Z,6.50
2022-12-05T23:06:16.316Z,6.50
2022-12-05T23:08:45.089Z,6.50
2022-12-05T23:11:12.248Z,6.50
2022-12-05T23:13:39.752Z,6.40
2022-12-05T23:16:08.862Z,6.30
2022-12-05T23:18:46.667Z,6.50
2022-12-05T23:21:13.726Z,6.30
2022-12-05T23:23:40.958Z,6.30
2022-12-05T23:26:07.993Z,6.40
2022-12-05T23:28:35.449Z,6.40
2022-12-05T23:31:03.938Z,6.50
2022-12-05T23:33:30.924Z,6.50
2022-12-05T23:35:58.049Z,6.40
2022-12-05T23:38:25.042Z,6.50
2022-12-05T23:41:06.412Z,6.40
2022-12-05T23:43:34.700Z,6.50
2022-12-05T23:46:02.348Z,6.50
2022-12-05T23:48:29.642Z,6.50
2022-12-05T23:51:01.099Z,6.50
2022-12-05T23:53:29.915Z,6.50
2022-12-05T23:56:07.573Z,6.60
2022-12-05T23:58:35.305Z,6.40
